METAR AND TAF INFORMATION
METAR FOR LIEO
ADDS - METARS form results

(1641 UTC 21 June 2021)
Data provider http://aviationweather.gov/metar/data/
 
METAR text: LIEO 211620Z AUTO 06007KT 030V090 9999 NCD 28/19 Q1010
Conditions at: LIEO (OLBIA/COSTA SMER, IT) observed 1620 UTC 21 June 2021
Temperature: 28.0°C (82°F)
Dewpoint: 19.0°C (66°F) [RH = 58%]
Pressure (altimeter): 29.82 inches Hg (1010.0 mb)
Winds: from the ENE (60 degrees) at 8 MPH (7 knots; 3.6 m/s)
Visibility: 6 or more miles (10+ km)
Ceiling: at least 12,000 feet AGL
Clouds: sky clear below 12,000 feet AGL
Weather: no significant weather observed at this time

METAR text: LIEO 211550Z AUTO 05009KT 030V090 9999 NCD 28/19 Q1010
Conditions at: LIEO (OLBIA/COSTA SMER, IT) observed 1550 UTC 21 June 2021
Temperature: 28.0°C (82°F)
Dewpoint: 19.0°C (66°F) [RH = 58%]
Pressure (altimeter): 29.82 inches Hg (1010.0 mb)
Winds: from the NE (50 degrees) at 10 MPH (9 knots; 4.6 m/s)
Visibility: 6 or more miles (10+ km)
Ceiling: at least 12,000 feet AGL
Clouds: sky clear below 12,000 feet AGL
Weather: no significant weather observed at this time

Forecast for: LIEO (OLBIA/COSTA SMER, IT)
Text: TAF LIEO 211100Z 2112/2212 06012KT 9999 FEW030
Forecast period: 1200 to 1800 UTC 21 June 2021
Forecast type: FROM: standard forecast or significant change
Winds: from the ENE (60 degrees) at 14 MPH (12 knots; 6.2 m/s)
Visibility: 6 or more miles (10+ km)
Ceiling: at least 12,000 feet AGL
Clouds: few clouds at 3000 feet AGL
Weather: no significant weather forecast for this period
Text: BECMG 2118/2120 VRB05KT
Forecast period: 1800 UTC 21 June 2021 to 0800 UTC 22 June 2021
Forecast type: BECOMING: Conditions expected to become as follows by 2000 UTC 21 June 2021
Winds: variable direction winds at 6 MPH (5 knots; 2.6 m/s)
Visibility: 6 or more miles (10+ km)
Ceiling: at least 12,000 feet AGL
Clouds: few clouds at 3000 feet AGL
Weather: no significant weather forecast for this period
Text: BECMG 2208/2210 04012KT
Forecast period: 0800 to 1200 UTC 22 June 2021
Forecast type: BECOMING: Conditions expected to become as follows by 1000 UTC 22 June 2021
Winds: from the NE (40 degrees) at 14 MPH (12 knots; 6.2 m/s)
Visibility: 6 or more miles (10+ km)
Ceiling: at least 12,000 feet AGL
Clouds: few clouds at 3000 feet AGL
Weather: no significant weather forecast for this period

 AIRPORT MAP

 RUNWAY INFORMATION
Runway 05 Runway length 8025 ft Runway width 148 ft
Runway elevation 35 ft Runway displaced threshold 805 ft Runway heading 53
Runway 23 Runway length 8025 ft Runway width 148 ft
Runway elevation 19 ft Runway displaced threshold 495 ft Runway heading 233

 AIRPORT FREQUENCIES
Type APP Name OLBIA RADA Frequency 125.95 MHZ
Type ATIS Name ATIS Frequency 113.9 MHZ
Type TWR Name OLBIA TWR Frequency 118.975 MHZ

 AIRPORT NEAR NAVIGATION AIDS
Type VOR-DME Name Olbia Costa Smeralda Frequency 113900 KHZ
Type NDB Name Olbia Costa Smeralda Frequency 357 KHZ



Powered by Virtual Airlines Manager [v2.6.2]

Hosted by Utixo.it